Time;durP1;ratioP1;P1;durP2;ratioP2;P2;SDS_P1;SDS_P2;PMS_P1;PMS_P2;Temp;Humidity;BMP_temperature;BMP_pressure;BME280_temperature;BME280_humidity;BME280_pressure;Samples;Min_cycle;Max_cycle;Signal;HPM_P1;HPM_P2
2023/07/09 00:02:10;;;;;;;16.17;11.18;;;23.30;99.90;;;;;;4724769;30;20209;-92
2023/07/09 00:04:53;;;;;;;15.88;11.40;;;23.30;99.90;;;;;;4710991;30;20230;-93
2023/07/09 00:08:06;;;;;;;15.98;11.75;;;23.10;99.90;;;;;;4732249;30;20229;-92
2023/07/09 00:10:35;;;;;;;18.05;13.10;;;23.00;99.90;;;;;;4723124;30;20222;-90
2023/07/09 00:13:11;;;;;;;19.45;14.00;;;22.90;99.90;;;;;;4726960;30;21026;-93
2023/07/09 00:15:51;;;;;;;22.50;14.38;;;22.70;99.90;;;;;;4734972;30;20209;-91
2023/07/09 00:18:19;;;;;;;19.30;13.85;;;22.70;99.90;;;;;;4737686;30;20223;-91
2023/07/09 00:20:50;;;;;;;21.67;15.02;;;22.60;99.90;;;;;;4728065;30;20306;-92
2023/07/09 00:23:48;;;;;;;22.52;16.63;;;22.60;99.90;;;;;;4728836;30;20227;-92
2023/07/09 00:26:23;;;;;;;19.60;14.57;;;22.50;99.90;;;;;;4743678;30;20251;-91
2023/07/09 00:29:01;;;;;;;20.25;14.88;;;22.50;99.90;;;;;;4716926;30;20213;-93
2023/07/09 00:31:32;;;;;;;21.75;16.42;;;22.50;99.90;;;;;;4738483;30;21054;-91
2023/07/09 00:34:04;;;;;;;23.30;16.40;;;22.50;99.90;;;;;;4736075;30;20300;-92
2023/07/09 00:36:43;;;;;;;20.40;14.95;;;22.50;99.90;;;;;;4736446;30;20216;-93
2023/07/09 00:39:31;;;;;;;20.42;15.80;;;22.50;99.90;;;;;;4738079;30;20255;-91
2023/07/09 00:42:07;;;;;;;20.77;15.93;;;22.50;99.90;;;;;;4738044;30;20220;-92
2023/07/09 00:44:45;;;;;;;20.77;14.15;;;22.50;99.90;;;;;;4738087;30;20461;-93
2023/07/09 00:48:01;;;;;;;18.85;14.02;;;22.50;99.90;;;;;;4735713;30;20253;-93
2023/07/09 00:50:45;;;;;;;20.52;15.13;;;22.50;99.90;;;;;;4739825;30;20282;-91
2023/07/09 00:54:04;;;;;;;;;;;;;;;;;;;;;
2023/07/09 00:57:03;;;;;;;;;;;;;;;;;;;;;
2023/07/09 01:00:01;;;;;;;18.90;13.63;;;22.40;99.90;;;;;;4745952;30;20217;-92
2023/07/09 01:02:29;;;;;;;22.20;13.95;;;22.40;99.90;;;;;;4746672;30;20216;-92
2023/07/09 01:05:23;;;;;;;19.67;14.32;;;22.40;99.90;;;;;;4726594;30;20294;-92
2023/07/09 01:08:02;;;;;;;18.83;13.13;;;22.40;99.90;;;;;;4730056;30;20274;-91
2023/07/09 01:10:52;;;;;;;20.58;14.13;;;22.40;99.90;;;;;;4745728;30;20212;-92
2023/07/09 01:14:01;;;;;;;19.45;13.23;;;22.40;99.90;;;;;;4747644;30;20217;-90
2023/07/09 01:16:38;;;;;;;17.38;13.07;;;22.40;99.90;;;;;;4735813;30;20212;-93
2023/07/09 01:19:09;;;;;;;17.90;12.60;;;22.30;99.90;;;;;;4736545;30;20235;-92
2023/07/09 01:21:47;;;;;;;16.65;13.20;;;22.40;99.90;;;;;;4739639;30;20250;-91
2023/07/09 01:25:01;;;;;;;18.73;13.18;;;22.40;99.90;;;;;;4737379;30;20224;-94
2023/07/09 01:27:33;;;;;;;17.75;12.80;;;22.40;99.90;;;;;;4740431;30;20204;-92
2023/07/09 01:30:25;;;;;;;19.52;12.52;;;22.40;99.90;;;;;;4751149;30;20224;-92
2023/07/09 01:33:01;;;;;;;19.08;12.75;;;22.40;99.90;;;;;;4738458;30;20226;-91
2023/07/09 01:36:23;;;;;;;20.30;12.95;;;22.40;99.90;;;;;;4733680;30;20240;-91
2023/07/09 01:39:04;;;;;;;19.83;13.65;;;22.40;99.90;;;;;;4752560;30;20220;-94
2023/07/09 01:41:39;;;;;;;19.67;13.55;;;22.30;99.90;;;;;;4733045;30;20569;-90
2023/07/09 01:44:33;;;;;;;19.48;14.27;;;22.30;99.90;;;;;;4726583;30;20331;-92
2023/07/09 01:47:16;;;;;;;22.02;14.80;;;22.30;99.90;;;;;;4743976;30;20225;-91
2023/07/09 01:49:59;;;;;;;18.42;14.82;;;22.20;99.90;;;;;;4733172;30;20213;-92
2023/07/09 01:56:24;;;;;;;18.75;13.55;;;22.10;99.90;;;;;;4722258;30;20214;-91
2023/07/09 01:59:01;;;;;;;19.08;14.23;;;22.00;99.90;;;;;;4724122;30;20217;-93
2023/07/09 02:01:33;;;;;;;18.88;13.68;;;21.90;99.90;;;;;;4724770;30;20228;-91
2023/07/09 02:04:03;;;;;;;20.25;14.18;;;21.90;99.90;;;;;;4723831;30;20229;-92
2023/07/09 02:06:44;;;;;;;18.95;14.00;;;21.90;99.90;;;;;;4737012;30;20232;-91
2023/07/09 02:09:23;;;;;;;19.85;13.20;;;21.90;99.90;;;;;;4719162;30;20228;-90
2023/07/09 02:11:53;;;;;;;19.23;13.07;;;21.80;99.90;;;;;;4724139;30;20248;-90
2023/07/09 02:14:31;;;;;;;20.45;14.27;;;21.80;99.90;;;;;;4723989;30;20204;-89
2023/07/09 02:17:21;;;;;;;20.20;12.48;;;21.80;99.90;;;;;;4736580;30;20220;-93
2023/07/09 02:19:50;;;;;;;19.83;12.77;;;21.80;99.90;;;;;;4716603;30;20202;-91
2023/07/09 02:22:46;;;;;;;19.85;13.40;;;21.80;99.90;;;;;;4723077;30;20213;-93
2023/07/09 02:25:13;;;;;;;20.75;12.90;;;21.80;99.90;;;;;;4722941;30;20229;-91
2023/07/09 02:27:45;;;;;;;19.77;13.95;;;21.70;99.90;;;;;;4737409;30;20202;-93
2023/07/09 02:30:19;;;;;;;18.58;13.25;;;21.80;99.90;;;;;;4726866;30;20216;-90
2023/07/09 02:32:54;;;;;;;15.60;12.50;;;21.80;99.90;;;;;;4734239;30;20571;-90
2023/07/09 02:35:25;;;;;;;17.60;13.13;;;21.70;99.90;;;;;;4721820;30;20257;-91
2023/07/09 02:38:13;;;;;;;16.27;12.30;;;21.80;99.90;;;;;;4737552;30;20221;-91
2023/07/09 02:40:47;;;;;;;16.85;11.77;;;21.80;99.90;;;;;;4719573;30;20787;-90
2023/07/09 02:43:22;;;;;;;16.13;12.10;;;21.80;99.90;;;;;;4721943;30;20241;-91
2023/07/09 02:46:03;;;;;;;20.13;13.65;;;21.70;99.90;;;;;;4730591;30;20255;-92
2023/07/09 02:48:44;;;;;;;21.27;14.75;;;21.70;99.90;;;;;;4722839;30;20220;-91
2023/07/09 02:51:14;;;;;;;18.20;14.15;;;21.70;99.90;;;;;;4738872;30;21287;-91
2023/07/09 02:54:12;;;;;;;18.75;14.63;;;21.70;99.90;;;;;;4727286;30;20220;-91
2023/07/09 02:56:50;;;;;;;20.98;14.70;;;21.60;99.90;;;;;;4727918;30;20583;-92
2023/07/09 02:59:38;;;;;;;18.42;14.27;;;21.60;99.90;;;;;;4728164;30;20225;-92
2023/07/09 03:02:21;;;;;;;21.65;14.45;;;21.60;99.90;;;;;;4727970;30;20216;-91
2023/07/09 03:05:24;;;;;;;20.58;13.98;;;21.50;99.90;;;;;;4717541;30;20240;-92
2023/07/09 03:08:31;;;;;;;20.98;13.23;;;21.40;99.90;;;;;;4724230;30;20201;-91
2023/07/09 03:11:32;;;;;;;19.27;13.85;;;21.40;99.90;;;;;;4734329;30;20295;-91
2023/07/09 03:14:02;;;;;;;17.40;11.68;;;21.40;99.90;;;;;;4721313;30;20255;-91
2023/07/09 03:16:37;;;;;;;18.13;12.02;;;21.30;99.90;;;;;;4742170;30;20232;-91
2023/07/09 03:19:11;;;;;;;18.27;12.23;;;21.40;99.90;;;;;;4738242;30;20223;-90
2023/07/09 03:21:44;;;;;;;16.25;12.52;;;21.40;99.90;;;;;;4732486;30;20226;-92
2023/07/09 03:24:40;;;;;;;18.42;13.73;;;21.40;99.90;;;;;;4743864;30;20213;-91
2023/07/09 03:27:14;;;;;;;16.42;12.15;;;21.30;99.90;;;;;;4728850;30;20248;-91
2023/07/09 03:33:06;;;;;;;19.50;14.00;;;21.40;99.90;;;;;;4743056;30;20247;-91
2023/07/09 03:35:48;;;;;;;19.05;13.73;;;21.40;99.90;;;;;;4727484;30;20248;-91
2023/07/09 03:38:27;;;;;;;18.35;13.50;;;21.40;99.90;;;;;;4727931;30;20216;-91
2023/07/09 03:40:57;;;;;;;16.52;12.25;;;21.40;99.90;;;;;;4727781;30;20215;-90
2023/07/09 03:43:30;;;;;;;20.08;13.32;;;21.40;99.90;;;;;;4727952;30;20815;-90
2023/07/09 03:46:24;;;;;;;17.58;13.05;;;21.40;99.90;;;;;;4712582;30;20655;-90
2023/07/09 03:49:11;;;;;;;19.38;13.68;;;21.40;99.90;;;;;;4720832;30;20219;-91
2023/07/09 03:51:44;;;;;;;18.98;12.70;;;21.40;99.90;;;;;;4708576;30;20226;-93
2023/07/09 03:54:34;;;;;;;17.05;12.77;;;21.40;99.90;;;;;;4740140;30;20284;-91
2023/07/09 03:57:11;;;;;;;16.20;11.98;;;21.40;99.90;;;;;;4725204;30;20235;-91
2023/07/09 03:59:39;;;;;;;14.50;11.75;;;21.40;99.90;;;;;;4725742;30;20219;-90
2023/07/09 04:02:14;;;;;;;17.98;11.98;;;21.50;99.90;;;;;;4735432;30;20566;-90
2023/07/09 04:04:44;;;;;;;16.50;12.10;;;21.50;99.90;;;;;;4726577;30;20227;-91
2023/07/09 04:07:21;;;;;;;16.60;12.38;;;21.50;99.90;;;;;;4735092;30;20246;-91
2023/07/09 04:09:48;;;;;;;16.30;12.07;;;21.50;99.90;;;;;;4734798;30;20201;-92
2023/07/09 04:12:18;;;;;;;18.60;13.90;;;21.60;99.90;;;;;;4727165;30;20906;-92
2023/07/09 04:14:52;;;;;;;16.35;12.23;;;21.60;99.90;;;;;;4733519;30;21046;-91
2023/07/09 04:17:26;;;;;;;16.73;12.60;;;21.60;99.90;;;;;;4717603;30;20209;-93
2023/07/09 04:20:02;;;;;;;17.80;12.10;;;21.70;99.90;;;;;;4709854;30;20208;-92
2023/07/09 04:22:35;;;;;;;21.13;14.13;;;21.80;99.90;;;;;;4725387;30;20243;-91
2023/07/09 04:25:10;;;;;;;19.95;13.73;;;21.80;99.90;;;;;;4727133;30;20247;-91
2023/07/09 04:27:40;;;;;;;20.20;15.05;;;21.90;99.90;;;;;;4727467;30;20213;-90
2023/07/09 04:31:02;;;;;;;21.90;16.15;;;21.90;99.90;;;;;;4727827;30;20445;-91
2023/07/09 04:33:45;;;;;;;23.20;16.88;;;21.90;99.90;;;;;;4732878;30;20724;-92
2023/07/09 04:36:33;;;;;;;19.70;15.57;;;21.90;99.90;;;;;;4726570;30;20248;-92
2023/07/09 04:39:55;;;;;;;20.55;16.05;;;22.00;99.90;;;;;;4735024;30;20514;-91
2023/07/09 04:42:20;;;;;;;22.15;16.83;;;22.00;99.90;;;;;;4745071;30;20246;-90
2023/07/09 04:44:47;;;;;;;25.13;17.75;;;22.10;99.90;;;;;;4737560;30;20232;-92
2023/07/09 04:47:21;;;;;;;21.58;16.17;;;22.20;99.90;;;;;;4733062;30;20249;-90
2023/07/09 04:49:54;;;;;;;22.52;17.48;;;22.30;99.90;;;;;;4726831;30;20209;-91
2023/07/09 04:52:22;;;;;;;21.27;16.33;;;22.30;99.90;;;;;;4737964;30;20213;-87
2023/07/09 04:54:50;;;;;;;21.73;17.33;;;22.40;99.90;;;;;;4723480;30;21124;-86
2023/07/09 04:57:19;;;;;;;23.73;17.35;;;22.50;99.90;;;;;;4721923;30;20210;-89
2023/07/09 04:59:54;;;;;;;23.23;18.63;;;22.50;99.90;;;;;;4726666;30;20263;-89
2023/07/09 05:02:34;;;;;;;24.55;19.35;;;22.60;99.90;;;;;;4730835;30;20221;-90
2023/07/09 05:05:14;;;;;;;22.20;18.15;;;22.70;99.90;;;;;;4730454;30;20210;-87
2023/07/09 05:07:42;;;;;;;24.95;17.05;;;22.70;99.90;;;;;;4731169;30;20510;-89
2023/07/09 05:10:09;;;;;;;27.90;17.80;;;22.80;99.90;;;;;;4738227;30;20255;-86
2023/07/09 05:12:54;;;;;;;22.88;17.15;;;22.80;99.90;;;;;;4730852;30;20271;-89
2023/07/09 05:27:15;;;;;;;;;;;;;;;;;;;;;
2023/07/09 05:30:50;;;;;;;;;;;;;;;;;;;;;
2023/07/09 05:34:12;;;;;;;20.77;16.48;;;23.50;99.90;;;;;;4652706;30;20212;-84
2023/07/09 05:41:03;;;;;;;;;;;;;;;;;;;;;
2023/07/09 05:48:33;;;;;;;17.27;13.20;;;25.60;99.90;;;;;;4652629;30;20215;-82
2023/07/09 05:51:27;;;;;;;19.05;13.20;;;26.40;99.90;;;;;;4652463;30;20224;-84
2023/07/09 05:54:26;;;;;;;18.50;13.13;;;26.80;99.90;;;;;;4640898;30;20246;-84
2023/07/09 05:57:11;;;;;;;21.75;12.82;;;26.90;99.90;;;;;;4691643;24;20210;-93
2023/07/09 05:59:49;;;;;;;19.70;13.20;;;27.30;99.90;;;;;;4722933;30;20290;-86
2023/07/09 06:02:21;;;;;;;18.38;12.77;;;27.60;99.90;;;;;;4697999;30;20217;-88
2023/07/09 06:04:53;;;;;;;21.33;13.52;;;27.80;99.90;;;;;;4714331;30;20216;-90
2023/07/09 06:07:22;;;;;;;18.40;13.02;;;28.30;99.90;;;;;;4712395;30;20240;-85
2023/07/09 06:09:58;;;;;;;17.70;13.05;;;28.60;99.90;;;;;;4712864;30;20676;-89
2023/07/09 06:12:29;;;;;;;17.15;12.55;;;29.30;99.90;;;;;;4726593;30;20224;-93
2023/07/09 06:15:01;;;;;;;17.42;13.38;;;29.70;99.90;;;;;;4727426;30;20248;-91
2023/07/09 06:17:33;;;;;;;18.27;13.55;;;30.00;99.90;;;;;;4724969;30;20224;-92
2023/07/09 06:20:01;;;;;;;17.35;13.48;;;30.30;99.90;;;;;;4751576;30;20224;-89
2023/07/09 06:22:35;;;;;;;18.10;13.27;;;30.50;99.90;;;;;;4744394;30;20220;-92
2023/07/09 06:30:10;;;;;;;17.02;13.80;;;31.20;99.90;;;;;;5056397;22;1318211;-83
2023/07/09 06:37:26;;;;;;;19.90;13.00;;;31.50;99.90;;;;;;4908696;28;20220;-84
2023/07/09 06:40:02;;;;;;;17.73;12.25;;;31.70;99.90;;;;;;4968568;28;20221;-83
2023/07/09 06:42:38;;;;;;;17.25;12.52;;;31.80;99.90;;;;;;4968120;28;20679;-83
2023/07/09 06:45:08;;;;;;;15.90;12.15;;;31.90;99.90;;;;;;4969653;28;20269;-85
2023/07/09 06:47:40;;;;;;;17.77;11.23;;;32.00;99.90;;;;;;4969585;28;20735;-83
2023/07/09 06:50:11;;;;;;;16.27;11.93;;;32.10;99.90;;;;;;4995815;28;20677;-83
2023/07/09 06:52:42;;;;;;;17.33;11.82;;;32.20;99.90;;;;;;5059651;28;20209;-82
2023/07/09 06:55:11;;;;;;;15.18;11.90;;;32.20;99.90;;;;;;5060802;28;20667;-83
2023/07/09 06:57:43;;;;;;;15.25;11.35;;;32.20;99.90;;;;;;5040038;28;20230;-83
2023/07/09 07:00:17;;;;;;;15.18;10.93;;;32.10;99.90;;;;;;5043874;28;20231;-85
2023/07/09 07:02:47;;;;;;;16.08;12.00;;;32.20;99.90;;;;;;5042609;28;20212;-85
2023/07/09 07:05:32;;;;;;;16.88;11.82;;;32.20;99.90;;;;;;5047433;28;20209;-82
2023/07/09 07:08:03;;;;;;;13.57;10.93;;;32.20;99.90;;;;;;5043731;28;20227;-85
2023/07/09 07:10:30;;;;;;;16.17;11.05;;;32.20;99.90;;;;;;5042307;28;20206;-83
2023/07/09 07:13:12;;;;;;;16.33;11.43;;;32.30;99.90;;;;;;5042811;28;20295;-83
2023/07/09 07:15:50;;;;;;;18.17;11.82;;;32.60;99.90;;;;;;5049625;28;20228;-80
2023/07/09 07:18:20;;;;;;;17.80;11.45;;;32.90;99.90;;;;;;5036792;28;20220;-81
2023/07/09 07:20:57;;;;;;;13.57;9.73;;;33.10;99.90;;;;;;5058111;28;20200;-82
2023/07/09 07:23:36;;;;;;;16.65;11.45;;;33.20;99.90;;;;;;5047536;28;20212;-83
2023/07/09 07:26:14;;;;;;;15.55;10.85;;;33.40;99.90;;;;;;5055086;28;20232;-81
2023/07/09 07:28:51;;;;;;;13.60;10.80;;;33.50;99.90;;;;;;5041131;28;20251;-82
2023/07/09 07:34:50;;;;;;;15.95;11.00;;;33.80;99.90;;;;;;5015925;28;20207;-81
2023/07/09 07:37:42;;;;;;;14.90;10.30;;;33.90;99.90;;;;;;5015448;28;20657;-82
2023/07/09 07:40:15;;;;;;;12.95;9.35;;;34.10;99.90;;;;;;5017180;28;20209;-82
2023/07/09 07:42:42;;;;;;;16.23;10.65;;;34.30;99.90;;;;;;5009253;28;20293;-83
2023/07/09 07:45:09;;;;;;;11.25;9.27;;;34.70;99.90;;;;;;5004564;28;20260;-82
2023/07/09 07:47:36;;;;;;;13.70;10.35;;;34.90;99.90;;;;;;5003724;28;20284;-80
2023/07/09 07:50:06;;;;;;;13.45;9.65;;;35.20;99.90;;;;;;5016746;28;20317;-80
2023/07/09 07:52:37;;;;;;;13.80;9.13;;;35.50;99.90;;;;;;5008665;28;20253;-80
2023/07/09 07:55:08;;;;;;;11.10;8.32;;;35.60;99.90;;;;;;5011142;28;20213;-81
2023/07/09 07:57:43;;;;;;;12.93;9.85;;;35.70;99.90;;;;;;5010486;28;20202;-82
2023/07/09 08:00:11;;;;;;;12.43;9.88;;;36.00;99.90;;;;;;5002293;28;20580;-82
2023/07/09 08:02:38;;;;;;;12.82;9.52;;;36.20;99.90;;;;;;5009757;28;20518;-84
2023/07/09 08:05:08;;;;;;;16.13;9.70;;;36.30;99.90;;;;;;5022052;28;20225;-82
2023/07/09 08:07:37;;;;;;;13.00;8.90;;;36.40;99.90;;;;;;5006150;28;20276;-82
2023/07/09 08:10:06;;;;;;;12.52;9.65;;;36.40;99.90;;;;;;5005930;28;20226;-81
2023/07/09 08:12:33;;;;;;;12.43;8.70;;;36.60;99.90;;;;;;5005234;28;20229;-80
2023/07/09 08:15:00;;;;;;;13.10;9.10;;;36.60;99.90;;;;;;5006080;28;20300;-81
2023/07/09 08:17:27;;;;;;;12.35;9.30;;;36.70;99.90;;;;;;5004417;28;20211;-81
2023/07/09 08:19:54;;;;;;;11.77;8.20;;;36.70;99.90;;;;;;5005268;28;20218;-82
2023/07/09 08:22:22;;;;;;;10.00;7.82;;;36.80;99.90;;;;;;5002440;28;20202;-82
2023/07/09 08:24:50;;;;;;;14.15;9.60;;;36.80;99.90;;;;;;5008572;28;20297;-80
2023/07/09 08:27:18;;;;;;;10.38;7.93;;;36.80;99.90;;;;;;5017536;28;20202;-81
2023/07/09 08:29:45;;;;;;;12.15;8.63;;;36.90;99.90;;;;;;5004114;28;20639;-82
2023/07/09 08:32:13;;;;;;;12.00;8.40;;;36.90;99.90;;;;;;5008940;28;20710;-81
2023/07/09 08:34:42;;;;;;;11.82;8.30;;;37.00;99.90;;;;;;4998344;28;20396;-82
2023/07/09 08:37:29;;;;;;;9.57;7.68;;;37.10;99.90;;;;;;5005884;28;20206;-82
2023/07/09 08:39:58;;;;;;;9.90;7.55;;;37.30;99.90;;;;;;5004329;28;20301;-82
2023/07/09 08:42:43;;;;;;;14.88;7.57;;;37.40;99.80;;;;;;5001044;28;20252;-82
2023/07/09 08:46:24;;;;;;;9.68;7.63;;;37.50;99.50;;;;;;5006426;28;20227;-83
2023/07/09 08:49:39;;;;;;;;;;;;;;;;;;;;;
2023/07/09 08:52:42;;;;;;;9.23;6.72;;;37.70;98.60;;;;;;5003207;28;20206;-82
2023/07/09 08:55:16;;;;;;;9.55;6.78;;;37.70;97.40;;;;;;4999207;28;20678;-80
2023/07/09 08:57:48;;;;;;;8.15;6.45;;;37.70;97.70;;;;;;5008287;28;20257;-82
2023/07/09 09:00:37;;;;;;;8.55;6.00;;;37.80;96.40;;;;;;5008229;28;20218;-80
2023/07/09 09:03:19;;;;;;;11.98;6.95;;;37.80;95.80;;;;;;5006152;28;20506;-80
2023/07/09 09:05:49;;;;;;;9.15;6.75;;;37.80;95.90;;;;;;5006924;28;20733;-82
2023/07/09 09:08:38;;;;;;;9.52;6.70;;;37.60;96.10;;;;;;5006723;28;20206;-83
2023/07/09 09:11:49;;;;;;;8.95;6.07;;;37.70;95.90;;;;;;5008048;28;20561;-82
2023/07/09 09:14:30;;;;;;;8.48;6.72;;;37.70;94.70;;;;;;5001821;28;20214;-80
2023/07/09 09:17:19;;;;;;;10.07;6.03;;;37.60;94.40;;;;;;5009000;28;20244;-80
2023/07/09 09:20:03;;;;;;;11.13;7.40;;;37.50;94.10;;;;;;5001425;28;20681;-81
2023/07/09 09:22:52;;;;;;;10.50;7.05;;;37.50;94.20;;;;;;5003681;28;20201;-82
2023/07/09 09:25:30;;;;;;;9.55;6.75;;;37.50;94.20;;;;;;5001468;28;20607;-84
2023/07/09 09:28:00;;;;;;;8.90;7.07;;;37.50;94.20;;;;;;5006096;28;20210;-82
2023/07/09 09:30:35;;;;;;;10.13;6.90;;;37.40;94.70;;;;;;5014134;28;20221;-81
2023/07/09 09:33:08;;;;;;;12.35;7.18;;;37.50;94.70;;;;;;5017001;28;20641;-82
2023/07/09 09:35:45;;;;;;;13.30;7.65;;;37.50;94.90;;;;;;5027900;28;20205;-82
2023/07/09 09:38:21;;;;;;;8.18;6.60;;;37.40;94.90;;;;;;5026273;28;20288;-82
2023/07/09 09:40:51;;;;;;;9.85;7.25;;;37.30;94.80;;;;;;5028153;28;20228;-83
2023/07/09 09:43:23;;;;;;;11.73;7.47;;;37.20;95.20;;;;;;5017451;28;20205;-80
2023/07/09 09:45:53;;;;;;;10.80;6.70;;;37.00;95.50;;;;;;5022079;28;20236;-82
2023/07/09 09:48:29;;;;;;;10.43;6.95;;;36.90;95.10;;;;;;5025364;28;20598;-80
2023/07/09 09:51:00;;;;;;;10.48;7.05;;;36.80;94.90;;;;;;5023454;28;20209;-83
2023/07/09 09:53:37;;;;;;;10.63;7.45;;;36.80;95.00;;;;;;5028683;28;20193;-82
2023/07/09 09:56:05;;;;;;;10.88;7.47;;;36.80;95.00;;;;;;5026906;28;20243;-82
2023/07/09 09:58:33;;;;;;;10.27;6.85;;;36.80;95.30;;;;;;5027431;28;20209;-81
2023/07/09 10:01:02;;;;;;;10.65;7.60;;;36.80;95.40;;;;;;5024675;28;20221;-82
2023/07/09 10:03:35;;;;;;;10.25;6.93;;;36.70;95.90;;;;;;5025809;28;20228;-81
2023/07/09 10:06:20;;;;;;;10.07;7.10;;;36.60;95.10;;;;;;5029615;28;20224;-82
2023/07/09 10:08:56;;;;;;;12.07;6.65;;;36.60;94.90;;;;;;5025744;28;20572;-81
2023/07/09 10:11:45;;;;;;;9.70;6.50;;;36.60;95.50;;;;;;5022628;28;20307;-81
2023/07/09 10:14:43;;;;;;;11.98;7.78;;;36.50;94.90;;;;;;5025740;28;20193;-81
2023/07/09 10:17:31;;;;;;;11.50;6.63;;;36.50;95.50;;;;;;5025490;28;20225;-83
2023/07/09 10:20:11;;;;;;;8.77;6.53;;;36.50;95.40;;;;;;5032019;28;20201;-81
2023/07/09 10:22:50;;;;;;;11.02;7.88;;;36.50;95.60;;;;;;5027316;28;20205;-82
2023/07/09 10:25:48;;;;;;;8.65;6.40;;;36.50;95.30;;;;;;5022484;28;20206;-82
2023/07/09 10:28:28;;;;;;;9.27;5.70;;;36.50;94.70;;;;;;5024629;28;20662;-80
2023/07/09 10:31:00;;;;;;;8.88;6.65;;;36.50;94.50;;;;;;5017068;28;20315;-81
2023/07/09 10:33:37;;;;;;;9.52;6.50;;;36.50;94.50;;;;;;5025466;28;20217;-81
2023/07/09 10:36:24;;;;;;;13.05;6.63;;;36.40;94.60;;;;;;5032935;28;20248;-83
2023/07/09 10:38:57;;;;;;;10.20;6.63;;;36.40;94.60;;;;;;5024648;28;20212;-84
2023/07/09 10:41:29;;;;;;;8.65;6.15;;;36.50;94.70;;;;;;5023098;28;20212;-82
2023/07/09 10:44:23;;;;;;;9.38;6.57;;;36.50;94.60;;;;;;5024260;28;20575;-81
2023/07/09 10:47:01;;;;;;;9.40;6.68;;;36.50;94.70;;;;;;5021925;28;20221;-82
2023/07/09 10:49:42;;;;;;;8.93;6.07;;;36.60;94.70;;;;;;5016988;28;20245;-86
2023/07/09 10:52:35;;;;;;;9.05;6.20;;;36.60;94.50;;;;;;5024759;28;20220;-82
2023/07/09 10:55:21;;;;;;;7.88;5.78;;;36.50;94.50;;;;;;5033567;28;20213;-83
2023/07/09 10:58:00;;;;;;;10.82;6.72;;;36.50;94.10;;;;;;5024644;28;20665;-85
2023/07/09 11:00:40;;;;;;;8.73;5.93;;;36.40;94.20;;;;;;5026933;28;20225;-84
2023/07/09 11:03:36;;;;;;;9.45;5.80;;;36.40;94.10;;;;;;5024833;28;20221;-82
2023/07/09 11:06:34;;;;;;;7.72;5.80;;;36.50;94.40;;;;;;5014464;28;20326;-83
2023/07/09 11:09:04;;;;;;;8.35;5.20;;;36.50;94.30;;;;;;5039650;28;20524;-82
2023/07/09 11:11:38;;;;;;;9.27;5.20;;;36.50;93.60;;;;;;5024098;28;20210;-82
2023/07/09 11:14:43;;;;;;;9.93;5.43;;;36.50;93.00;;;;;;5025751;28;20198;-82
2023/07/09 11:17:33;;;;;;;8.68;5.68;;;36.60;92.90;;;;;;5027133;28;20578;-83
2023/07/09 11:20:26;;;;;;;9.25;5.28;;;36.70;93.00;;;;;;5028059;28;20787;-84
2023/07/09 11:23:39;;;;;;;9.57;5.45;;;36.70;92.20;;;;;;5022650;28;20213;-83
2023/07/09 11:30:05;;;;;;;9.07;5.60;;;36.60;91.70;;;;;;5009425;28;20366;-82
2023/07/09 11:33:16;;;;;;;7.57;5.20;;;36.60;91.70;;;;;;5030181;28;20208;-83
2023/07/09 11:36:30;;;;;;;9.40;5.43;;;36.50;91.90;;;;;;5018847;28;20209;-82
2023/07/09 11:38:57;;;;;;;7.25;5.25;;;36.50;91.60;;;;;;5021589;28;20236;-79
2023/07/09 11:41:34;;;;;;;9.02;6.00;;;36.40;91.70;;;;;;5028591;28;20201;-81
2023/07/09 11:44:15;;;;;;;8.23;5.05;;;36.40;91.90;;;;;;5021499;28;20686;-78
2023/07/09 11:46:55;;;;;;;9.98;5.05;;;36.40;92.30;;;;;;5025886;28;20694;-78
2023/07/09 11:49:26;;;;;;;7.18;4.68;;;36.50;92.20;;;;;;5028242;28;20228;-81
2023/07/09 11:51:57;;;;;;;7.13;5.18;;;36.50;92.00;;;;;;5030456;28;20209;-79
2023/07/09 11:54:24;;;;;;;8.32;4.95;;;36.40;92.00;;;;;;5028516;28;20271;-81
2023/07/09 11:57:00;;;;;;;8.30;5.15;;;36.40;92.20;;;;;;5029695;28;20197;-80
2023/07/09 11:59:27;;;;;;;11.32;5.18;;;36.40;92.00;;;;;;5029004;28;20217;-83
2023/07/09 12:01:55;;;;;;;7.38;4.63;;;36.40;92.20;;;;;;5028256;28;20210;-82
2023/07/09 12:04:30;;;;;;;7.40;4.63;;;36.40;92.30;;;;;;5021925;28;20267;-80
2023/07/09 12:06:59;;;;;;;6.95;4.80;;;36.40;92.30;;;;;;5026530;28;20197;-80
2023/07/09 12:09:32;;;;;;;6.60;4.97;;;36.40;92.40;;;;;;5019170;28;20228;-81
2023/07/09 12:11:59;;;;;;;5.65;4.68;;;36.50;92.30;;;;;;5026376;28;20214;-81
2023/07/09 12:14:26;;;;;;;8.30;5.25;;;36.60;91.90;;;;;;5018530;28;20212;-82
2023/07/09 12:16:54;;;;;;;8.82;4.85;;;36.60;91.70;;;;;;5013391;28;20252;-81
2023/07/09 12:19:24;;;;;;;8.13;5.05;;;36.70;91.30;;;;;;5022212;28;20490;-81
2023/07/09 12:21:57;;;;;;;8.85;4.70;;;36.60;91.30;;;;;;5016490;28;20225;-79
2023/07/09 12:24:39;;;;;;;5.57;4.70;;;36.60;91.70;;;;;;5022719;28;20253;-81
2023/07/09 12:27:26;;;;;;;8.30;5.13;;;36.50;91.60;;;;;;5022137;28;20197;-80
2023/07/09 12:29:56;;;;;;;7.63;5.07;;;36.50;91.60;;;;;;5021841;28;20239;-82
2023/07/09 12:32:26;;;;;;;8.80;5.22;;;36.40;91.60;;;;;;5018345;28;20667;-82
2023/07/09 12:34:56;;;;;;;10.40;5.32;;;36.40;91.80;;;;;;5010942;28;20238;-80
2023/07/09 12:37:25;;;;;;;11.93;5.20;;;36.50;92.10;;;;;;5002907;28;20213;-80
2023/07/09 12:39:52;;;;;;;6.70;5.22;;;36.60;92.50;;;;;;5002631;28;20598;-80
2023/07/09 12:42:41;;;;;;;8.45;5.40;;;36.60;92.40;;;;;;5008091;28;20222;-80
2023/07/09 12:45:16;;;;;;;7.07;5.03;;;36.60;92.00;;;;;;5000230;28;20546;-80
2023/07/09 12:47:43;;;;;;;7.13;5.38;;;36.60;92.00;;;;;;5001546;28;20662;-79
2023/07/09 12:50:20;;;;;;;8.05;5.28;;;36.50;92.10;;;;;;5018453;28;20230;-81
2023/07/09 12:52:48;;;;;;;8.05;5.53;;;36.50;92.80;;;;;;5009332;28;20641;-82
2023/07/09 12:55:21;;;;;;;7.80;5.07;;;36.50;92.80;;;;;;4999512;28;20206;-80
2023/07/09 12:57:48;;;;;;;8.00;5.07;;;36.50;92.80;;;;;;5006586;28;20234;-80
2023/07/09 13:00:17;;;;;;;7.32;5.47;;;36.40;92.70;;;;;;5008890;28;20358;-80
2023/07/09 13:02:51;;;;;;;7.82;4.90;;;36.40;92.60;;;;;;5001170;28;20207;-81
2023/07/09 13:05:22;;;;;;;7.55;5.20;;;36.50;92.40;;;;;;5000670;28;20208;-81
2023/07/09 13:08:02;;;;;;;7.47;5.38;;;36.50;92.30;;;;;;4999950;28;20212;-79
2023/07/09 13:10:31;;;;;;;11.02;5.38;;;36.60;92.00;;;;;;5003801;28;20229;-81
2023/07/09 13:13:04;;;;;;;6.03;4.32;;;36.50;91.70;;;;;;5011015;28;20229;-80
2023/07/09 13:15:48;;;;;;;7.65;4.50;;;36.50;91.50;;;;;;5009343;28;20253;-81
2023/07/09 13:18:17;;;;;;;8.27;4.32;;;36.40;91.30;;;;;;5012502;28;20209;-78
2023/07/09 13:20:49;;;;;;;7.13;4.43;;;36.30;91.40;;;;;;5002590;28;20206;-79
2023/07/09 13:23:23;;;;;;;8.50;5.22;;;36.30;91.80;;;;;;5009202;28;20273;-79
2023/07/09 13:25:52;;;;;;;9.32;5.00;;;36.40;92.20;;;;;;5020423;28;20205;-80
2023/07/09 13:28:27;;;;;;;6.05;4.95;;;36.40;92.40;;;;;;5011055;28;20533;-80
2023/07/09 13:30:59;;;;;;;9.55;4.78;;;36.50;92.60;;;;;;4994481;28;20236;-81
2023/07/09 13:33:27;;;;;;;8.82;5.20;;;36.50;92.00;;;;;;5022742;28;20675;-79
2023/07/09 13:35:54;;;;;;;8.07;5.30;;;36.60;92.10;;;;;;5024173;28;20213;-80
2023/07/09 13:38:23;;;;;;;7.43;4.82;;;36.40;91.90;;;;;;5019120;28;20206;-83
2023/07/09 13:40:57;;;;;;;6.13;4.28;;;36.40;92.00;;;;;;5031367;28;20740;-80
2023/07/09 13:43:33;;;;;;;7.72;5.03;;;36.30;91.70;;;;;;5019915;28;20209;-79
2023/07/09 13:46:03;;;;;;;5.65;4.90;;;36.10;91.50;;;;;;5023120;28;20733;-78
2023/07/09 13:48:33;;;;;;;7.50;4.93;;;36.00;92.10;;;;;;5025873;28;20215;-81
2023/07/09 13:51:01;;;;;;;6.72;4.90;;;35.80;92.20;;;;;;5026102;28;20241;-79
2023/07/09 13:53:31;;;;;;;10.20;5.00;;;35.70;92.20;;;;;;5018604;28;20214;-82
2023/07/09 13:55:58;;;;;;;6.88;5.05;;;35.60;92.10;;;;;;5022642;28;20216;-81
2023/07/09 13:58:27;;;;;;;5.40;4.40;;;35.50;92.20;;;;;;5028866;28;20205;-81
2023/07/09 14:01:04;;;;;;;7.53;3.95;;;35.50;91.80;;;;;;5022801;28;20656;-82
2023/07/09 14:03:34;;;;;;;7.53;4.63;;;35.40;91.60;;;;;;5018124;28;20217;-81
2023/07/09 14:06:02;;;;;;;9.18;6.20;;;35.40;91.50;;;;;;5018111;28;20673;-80
2023/07/09 14:08:30;;;;;;;7.68;6.10;;;35.10;92.50;;;;;;5026706;28;20253;-80
2023/07/09 14:10:57;;;;;;;8.32;6.03;;;34.70;94.10;;;;;;5020588;28;20745;-80
2023/07/09 14:13:25;;;;;;;11.48;7.50;;;34.30;95.10;;;;;;5020401;28;20218;-81
2023/07/09 14:15:52;;;;;;;12.13;7.93;;;33.60;96.70;;;;;;5037940;28;20693;-80
2023/07/09 14:18:24;;;;;;;10.35;6.63;;;;;;;;;;5021141;28;20218;-79
2023/07/09 14:20:51;;;;;;;9.25;6.63;;;32.60;98.20;;;;;;5025484;28;20643;-79
2023/07/09 14:23:19;;;;;;;9.25;6.07;;;32.30;99.20;;;;;;5025104;28;20621;-81
2023/07/09 14:25:46;;;;;;;8.30;5.30;;;32.00;99.40;;;;;;5021786;28;20228;-80